Time;durP1;ratioP1;P1;durP2;ratioP2;P2;SDS_P1;SDS_P2;PMS_P1;PMS_P2;Temp;Humidity;BMP_temperature;BMP_pressure;BME280_temperature;BME280_humidity;BME280_pressure;Samples;Min_cycle;Max_cycle;Signal;HPM_P1;HPM_P2
2023/01/01 05:01:12;;;;;;;10.93;2.45;;;15.00;74.00;;;;;;4840151;29;20112;-71
2023/01/01 05:03:45;;;;;;;7.40;2.97;;;15.00;73.90;;;;;;4843826;29;20499;-70
2023/01/01 05:06:12;;;;;;;13.27;2.92;;;15.00;74.00;;;;;;4844962;29;20054;-70
2023/01/01 05:08:40;;;;;;;11.10;3.15;;;15.00;74.00;;;;;;4844851;29;20057;-72
2023/01/01 05:11:28;;;;;;;11.38;2.55;;;15.00;74.00;;;;;;4845325;29;20103;-79
2023/01/01 05:13:57;;;;;;;12.98;3.47;;;14.90;73.60;;;;;;4844376;29;20069;-70
2023/01/01 05:16:26;;;;;;;13.15;3.55;;;14.90;73.60;;;;;;4844541;29;20046;-78
2023/01/01 05:18:55;;;;;;;14.98;3.60;;;14.90;73.80;;;;;;4828869;29;20122;-79
2023/01/01 05:21:49;;;;;;;18.13;3.92;;;14.90;73.90;;;;;;4827965;29;20046;-75
2023/01/01 05:24:14;;;;;;;19.48;3.67;;;14.90;74.50;;;;;;4843187;29;20058;-79
2023/01/01 05:26:52;;;;;;;15.60;3.80;;;15.00;74.50;;;;;;4844517;29;20065;-79
2023/01/01 05:29:26;;;;;;;18.48;4.15;;;15.20;74.60;;;;;;4844246;29;20053;-78
2023/01/01 05:31:52;;;;;;;39.03;3.80;;;15.30;74.70;;;;;;4826903;29;20054;-79
2023/01/01 05:34:20;;;;;;;20.05;4.13;;;15.40;75.00;;;;;;4857919;29;20134;-78
2023/01/01 05:36:46;;;;;;;20.27;4.28;;;15.50;75.20;;;;;;4843641;29;20477;-81
2023/01/01 05:39:12;;;;;;;22.98;5.75;;;15.60;75.20;;;;;;4843959;29;20080;-80
2023/01/01 05:41:40;;;;;;;31.63;4.43;;;15.60;75.30;;;;;;4843782;29;20062;-79
2023/01/01 05:44:10;;;;;;;21.08;5.45;;;15.70;75.30;;;;;;4843869;29;20110;-80
2023/01/01 05:46:42;;;;;;;22.95;5.78;;;15.80;75.40;;;;;;4828721;29;20052;-79
2023/01/01 05:56:49;;;;;;;26.13;5.40;;;15.80;75.90;;;;;;4821520;29;20050;-78
2023/01/01 05:59:14;;;;;;;27.83;5.55;;;15.80;75.60;;;;;;4807717;29;20171;-79
2023/01/01 06:02:44;;;;;;;16.40;4.40;;;15.80;75.70;;;;;;4793021;29;20065;-79
2023/01/01 06:05:13;;;;;;;23.25;5.25;;;15.80;75.30;;;;;;4824002;29;20057;-80
2023/01/01 06:07:39;;;;;;;28.65;6.43;;;15.80;75.70;;;;;;4823964;29;20129;-78
2023/01/01 06:10:05;;;;;;;17.58;4.93;;;15.80;76.00;;;;;;4838651;29;20140;-78
2023/01/01 06:12:31;;;;;;;22.52;4.82;;;15.80;75.90;;;;;;4847978;29;20092;-79
2023/01/01 06:14:57;;;;;;;20.75;3.85;;;15.90;76.10;;;;;;4862251;29;20069;-82
2023/01/01 06:17:22;;;;;;;15.27;3.63;;;15.80;76.20;;;;;;4847231;29;20380;-79
2023/01/01 06:19:48;;;;;;;15.00;3.63;;;15.90;76.20;;;;;;4847943;29;20068;-79
2023/01/01 06:22:14;;;;;;;15.57;3.13;;;15.90;76.00;;;;;;4847839;29;20053;-80
2023/01/01 06:24:48;;;;;;;14.75;3.22;;;15.90;76.00;;;;;;4846635;29;20079;-82
2023/01/01 06:34:26;;;;;;;18.10;3.65;;;16.30;75.80;;;;;;4787056;29;20135;-80
2023/01/01 06:37:39;;;;;;;14.70;3.20;;;16.40;75.60;;;;;;4829011;29;20108;-80
2023/01/01 06:40:30;;;;;;;30.40;3.85;;;16.40;75.60;;;;;;4844060;29;20035;-80
2023/01/01 07:04:10;;;;;;;14.85;2.72;;;16.70;74.80;;;;;;4902842;29;20463;-80
2023/01/01 07:15:07;;;;;;;14.75;3.15;;;16.50;74.90;;;;;;5697023;23;20056;-80
2023/01/01 07:17:33;;;;;;;20.58;3.10;;;16.50;75.10;;;;;;4881053;29;20354;-80
2023/01/01 07:19:58;;;;;;;17.67;3.92;;;16.50;75.00;;;;;;4849110;29;20051;-79
2023/01/01 07:22:24;;;;;;;20.35;4.47;;;16.50;74.10;;;;;;4848660;29;20105;-79
2023/01/01 07:24:50;;;;;;;14.23;3.58;;;16.40;72.10;;;;;;4874238;29;20089;-80
2023/01/01 07:27:16;;;;;;;17.08;4.00;;;16.40;71.50;;;;;;4864695;29;20045;-80
2023/01/01 07:29:47;;;;;;;20.10;4.25;;;16.30;70.80;;;;;;4863527;29;20112;-80
2023/01/01 07:32:13;;;;;;;18.00;3.75;;;16.20;70.80;;;;;;4866610;29;20479;-79
2023/01/01 07:34:38;;;;;;;18.17;3.65;;;16.20;70.70;;;;;;4866412;29;20076;-78
2023/01/01 07:37:04;;;;;;;20.05;4.35;;;16.20;70.50;;;;;;4865428;29;20084;-78
2023/01/01 07:39:30;;;;;;;13.52;3.03;;;16.10;70.20;;;;;;4874888;29;20053;-80
2023/01/01 07:41:55;;;;;;;15.02;3.58;;;16.10;70.20;;;;;;4878363;29;21549;-79
2023/01/01 07:44:21;;;;;;;17.08;3.45;;;16.00;70.00;;;;;;4866210;29;20039;-78
2023/01/01 07:46:47;;;;;;;14.07;3.50;;;16.00;69.70;;;;;;4880695;29;20136;-80
2023/01/01 07:49:13;;;;;;;15.70;4.00;;;15.90;69.70;;;;;;4878788;29;20060;-79
2023/01/01 07:51:47;;;;;;;15.32;3.30;;;15.90;69.50;;;;;;4882563;29;20089;-83
2023/01/01 07:54:13;;;;;;;15.23;4.07;;;15.90;69.30;;;;;;4882164;29;20032;-78
2023/01/01 08:00:46;;;;;;;15.85;3.28;;;15.80;68.80;;;;;;4881174;29;20044;-81
2023/01/01 08:03:12;;;;;;;13.65;3.47;;;15.70;68.90;;;;;;4849643;29;20055;-79
2023/01/01 08:05:37;;;;;;;15.60;3.92;;;15.70;68.90;;;;;;4865511;29;20045;-79
2023/01/01 08:08:03;;;;;;;17.85;3.80;;;15.70;68.90;;;;;;4880691;29;20087;-80
2023/01/01 08:10:30;;;;;;;20.42;4.53;;;15.60;68.90;;;;;;4864958;29;20095;-78
2023/01/01 08:13:00;;;;;;;19.02;4.15;;;15.60;69.00;;;;;;4865882;29;20041;-79
2023/01/01 08:15:26;;;;;;;18.15;4.10;;;15.60;69.40;;;;;;4848830;29;20048;-78
2023/01/01 08:18:00;;;;;;;17.10;3.97;;;15.60;69.70;;;;;;4863488;29;20053;-80
2023/01/01 08:20:27;;;;;;;21.40;4.15;;;15.60;70.60;;;;;;4857904;29;20140;-78
2023/01/01 08:22:53;;;;;;;10.50;2.63;;;15.60;70.20;;;;;;4862375;29;20061;-78
2023/01/01 08:25:20;;;;;;;16.60;3.38;;;15.60;70.40;;;;;;4874471;29;20041;-79
2023/01/01 08:27:45;;;;;;;13.07;3.17;;;15.60;70.50;;;;;;4863360;29;20403;-77
2023/01/01 08:30:15;;;;;;;22.25;3.67;;;15.60;70.70;;;;;;4860806;29;20049;-78
2023/01/01 08:32:43;;;;;;;15.27;3.60;;;15.60;70.90;;;;;;4856658;29;20481;-69
2023/01/01 08:35:09;;;;;;;17.40;3.40;;;15.60;71.10;;;;;;4862870;29;20049;-70
2023/01/01 08:37:35;;;;;;;19.13;4.50;;;15.60;71.20;;;;;;4864091;29;20054;-79
2023/01/01 08:40:01;;;;;;;18.02;3.90;;;15.50;71.30;;;;;;4858637;29;20045;-78
2023/01/01 08:42:27;;;;;;;18.02;3.75;;;15.50;71.50;;;;;;4859186;29;20073;-78
2023/01/01 08:44:52;;;;;;;11.48;3.17;;;15.50;71.60;;;;;;4861459;29;20041;-78
2023/01/01 08:47:22;;;;;;;14.07;3.67;;;15.50;71.80;;;;;;4861982;29;20484;-79
2023/01/01 08:49:48;;;;;;;15.13;3.60;;;15.50;71.80;;;;;;4884005;29;20045;-79
2023/01/01 08:52:14;;;;;;;13.35;3.03;;;15.50;72.00;;;;;;4863945;29;20056;-79
2023/01/01 08:54:40;;;;;;;12.13;3.65;;;15.50;72.10;;;;;;4846841;29;20081;-71
2023/01/01 08:57:06;;;;;;;11.02;3.03;;;15.40;72.10;;;;;;4862321;29;20049;-80
2023/01/01 08:59:35;;;;;;;14.45;2.90;;;15.40;72.20;;;;;;4861097;29;20056;-75
2023/01/01 09:02:00;;;;;;;14.52;3.00;;;15.40;72.30;;;;;;4846123;29;20049;-80
2023/01/01 09:04:26;;;;;;;16.33;3.70;;;15.40;72.30;;;;;;4860994;29;20533;-81
2023/01/01 09:06:52;;;;;;;13.38;3.50;;;15.30;72.30;;;;;;4860973;29;20038;-81
2023/01/01 09:09:18;;;;;;;17.17;3.67;;;15.30;72.60;;;;;;4832181;29;20461;-81
2023/01/01 09:11:54;;;;;;;14.35;3.40;;;15.30;72.90;;;;;;4844301;29;20038;-76
2023/01/01 09:14:21;;;;;;;13.30;2.75;;;15.40;73.00;;;;;;4855660;29;20077;-75
2023/01/01 09:16:46;;;;;;;12.80;2.72;;;15.40;72.90;;;;;;4872827;29;20053;-80
2023/01/01 09:19:12;;;;;;;13.93;2.20;;;15.50;72.70;;;;;;4881303;29;20052;-76
2023/01/01 09:21:38;;;;;;;12.85;2.75;;;15.50;73.00;;;;;;4846004;29;20048;-83
2023/01/01 09:24:04;;;;;;;16.65;3.20;;;15.60;73.10;;;;;;4846779;29;20365;-81
2023/01/01 09:26:30;;;;;;;15.57;3.30;;;15.70;73.20;;;;;;4842870;29;20045;-80
2023/01/01 09:28:56;;;;;;;10.32;2.25;;;15.90;73.30;;;;;;4864821;29;20067;-80
2023/01/01 09:31:22;;;;;;;11.52;2.40;;;16.00;73.30;;;;;;4876834;29;20042;-81
2023/01/01 09:33:51;;;;;;;11.40;2.35;;;16.20;73.20;;;;;;4831317;29;20053;-79
2023/01/01 09:36:19;;;;;;;13.50;2.85;;;16.40;73.30;;;;;;4874381;29;20119;-77
2023/01/01 09:38:49;;;;;;;11.65;2.55;;;16.50;73.50;;;;;;4880003;29;20063;-79
2023/01/01 09:41:39;;;;;;;15.98;2.80;;;16.60;73.40;;;;;;4881146;29;20056;-79
2023/01/01 09:44:23;;;;;;;12.60;2.33;;;16.70;73.60;;;;;;4864998;29;20468;-80
2023/01/01 09:46:51;;;;;;;8.02;2.33;;;16.70;74.30;;;;;;4881639;29;20053;-81
2023/01/01 09:49:34;;;;;;;11.85;2.72;;;16.80;73.80;;;;;;4881393;29;20156;-81
2023/01/01 09:52:04;;;;;;;10.70;2.77;;;16.80;73.90;;;;;;4864835;29;20057;-79
2023/01/01 09:54:38;;;;;;;17.30;2.70;;;16.80;73.80;;;;;;4881426;29;20406;-80
2023/01/01 09:57:09;;;;;;;17.70;3.65;;;16.80;73.80;;;;;;4847304;29;20059;-77
2023/01/01 09:59:39;;;;;;;12.90;2.72;;;16.80;73.80;;;;;;4863854;29;20052;-80
2023/01/01 10:02:38;;;;;;;27.10;3.70;;;16.80;73.70;;;;;;4880770;29;20045;-77
2023/01/01 10:05:09;;;;;;;24.50;5.07;;;16.80;74.00;;;;;;4881238;29;20041;-77
2023/01/01 10:07:48;;;;;;;20.02;3.47;;;16.70;73.50;;;;;;4881186;29;20045;-76
2023/01/01 10:10:40;;;;;;;22.00;3.92;;;16.70;72.70;;;;;;4880465;29;20136;-77
2023/01/01 10:13:16;;;;;;;17.92;3.60;;;16.60;72.10;;;;;;4881392;29;20141;-77
2023/01/01 10:15:54;;;;;;;16.38;4.03;;;16.60;71.70;;;;;;4881196;29;20068;-78
2023/01/01 10:18:25;;;;;;;15.88;3.33;;;16.60;71.60;;;;;;4881540;29;20057;-77
2023/01/01 10:20:58;;;;;;;15.90;4.00;;;16.50;71.70;;;;;;4881862;29;20113;-79
2023/01/01 10:23:34;;;;;;;19.77;3.78;;;16.50;71.60;;;;;;4881002;29;20185;-77
2023/01/01 10:26:06;;;;;;;15.63;3.63;;;16.50;71.60;;;;;;4857652;29;20064;-78
2023/01/01 10:28:55;;;;;;;16.23;3.85;;;16.50;72.20;;;;;;4862727;29;20100;-78
2023/01/01 10:31:35;;;;;;;13.00;3.08;;;16.50;71.50;;;;;;4852294;29;20373;-77
2023/01/01 10:34:19;;;;;;;19.27;3.70;;;16.40;71.40;;;;;;4862528;29;20057;-76
2023/01/01 10:36:45;;;;;;;12.93;2.97;;;16.40;71.40;;;;;;4846121;29;20049;-77
2023/01/01 10:39:15;;;;;;;13.77;3.03;;;16.40;71.50;;;;;;4846683;29;20056;-77
2023/01/01 10:41:45;;;;;;;11.93;3.33;;;16.30;71.40;;;;;;4862629;29;20133;-77
2023/01/01 10:44:17;;;;;;;14.55;3.33;;;16.30;71.40;;;;;;4862766;29;20085;-80
2023/01/01 10:46:55;;;;;;;16.88;3.45;;;16.30;71.40;;;;;;4862560;29;20055;-78
2023/01/01 10:49:21;;;;;;;12.25;2.83;;;16.30;71.40;;;;;;4846275;29;20469;-77
2023/01/01 10:51:49;;;;;;;17.20;3.42;;;16.20;71.50;;;;;;4862302;29;20085;-77
2023/01/01 10:54:32;;;;;;;12.70;3.03;;;16.20;71.50;;;;;;4862310;29;20084;-77
2023/01/01 10:57:00;;;;;;;12.25;2.78;;;16.20;71.40;;;;;;4879941;29;20479;-78
2023/01/01 10:59:35;;;;;;;12.20;3.28;;;16.20;71.50;;;;;;4868202;29;20132;-76
2023/01/01 11:02:23;;;;;;;17.38;4.47;;;16.20;71.40;;;;;;4867873;29;20045;-72
2023/01/01 11:04:50;;;;;;;14.27;4.22;;;16.10;67.60;;;;;;4884236;29;20124;-73
2023/01/01 11:07:32;;;;;;;20.95;3.50;;;15.90;66.10;;;;;;4884070;29;20053;-76
2023/01/01 11:10:07;;;;;;;17.20;4.00;;;15.60;65.80;;;;;;4884045;29;20089;-75
2023/01/01 11:12:35;;;;;;;18.05;3.42;;;15.40;66.10;;;;;;4867657;29;20068;-74
2023/01/01 11:15:01;;;;;;;27.33;4.07;;;15.30;67.20;;;;;;4867543;29;20045;-72
2023/01/01 11:17:35;;;;;;;19.45;4.07;;;15.20;68.10;;;;;;4883464;29;20072;-75
2023/01/01 11:20:02;;;;;;;;;;;15.20;68.40;;;;;;4883044;29;20487;-75
2023/01/01 11:22:42;;;;;;;25.60;4.30;;;15.20;68.70;;;;;;4883898;29;19939;-74
2023/01/01 11:25:20;;;;;;;38.28;6.25;;;15.20;68.90;;;;;;4881103;29;20091;-80
2023/01/01 11:27:47;;;;;;;29.15;3.78;;;15.30;69.30;;;;;;4865407;29;20129;-77
2023/01/01 11:30:27;;;;;;;22.23;3.55;;;15.30;69.40;;;;;;4865023;29;20045;-77
2023/01/01 11:33:04;;;;;;;22.25;4.07;;;15.30;69.30;;;;;;4865231;29;20125;-78
2023/01/01 11:35:44;;;;;;;22.15;3.67;;;15.40;69.20;;;;;;4864988;29;20373;-79
2023/01/01 11:38:17;;;;;;;24.75;3.80;;;15.40;68.90;;;;;;4865252;29;20084;-79
2023/01/01 11:40:50;;;;;;;14.50;3.70;;;15.40;68.80;;;;;;4864173;29;20079;-77
2023/01/01 11:43:24;;;;;;;21.00;3.47;;;15.40;68.90;;;;;;4865004;29;20096;-80
2023/01/01 11:45:52;;;;;;;19.33;3.67;;;15.40;68.90;;;;;;4864441;29;20073;-78
2023/01/01 11:48:35;;;;;;;20.10;4.47;;;15.40;69.20;;;;;;4881086;29;20057;-80
2023/01/01 11:51:06;;;;;;;24.20;4.40;;;15.40;69.30;;;;;;4882043;29;20049;-81
2023/01/01 11:53:36;;;;;;;19.73;3.00;;;15.40;69.40;;;;;;4866716;29;20105;-78
2023/01/01 11:56:21;;;;;;;17.75;3.97;;;15.50;69.60;;;;;;4857232;29;20084;-78
2023/01/01 11:58:59;;;;;;;19.52;4.60;;;15.50;69.80;;;;;;4864441;29;20046;-77
2023/01/01 12:01:46;;;;;;;34.67;5.15;;;15.50;69.90;;;;;;4863909;29;20385;-77
2023/01/01 12:04:52;;;;;;;17.17;3.72;;;15.50;70.30;;;;;;4864487;29;20060;-79
2023/01/01 12:07:27;;;;;;;18.17;3.35;;;15.60;70.50;;;;;;4872828;29;20113;-75
2023/01/01 12:10:16;;;;;;;19.58;3.17;;;15.70;70.70;;;;;;4882635;29;20123;-76
2023/01/01 12:13:13;;;;;;;18.58;3.92;;;15.80;70.90;;;;;;4882922;29;20049;-73
2023/01/01 12:15:49;;;;;;;19.88;4.35;;;15.80;71.20;;;;;;4882176;29;20429;-74
2023/01/01 12:18:21;;;;;;;17.10;3.72;;;15.90;71.20;;;;;;4850856;29;20418;-77
2023/01/01 12:20:58;;;;;;;14.45;2.88;;;15.90;71.10;;;;;;4881023;29;20049;-81
2023/01/01 12:23:24;;;;;;;16.83;3.53;;;16.00;71.10;;;;;;4865488;29;20049;-82
2023/01/01 12:26:07;;;;;;;20.92;3.50;;;16.00;71.20;;;;;;4879781;29;20044;-81
2023/01/01 12:28:57;;;;;;;24.35;5.75;;;16.00;71.10;;;;;;4843417;29;20041;-82
2023/01/01 12:31:25;;;;;;;17.75;3.45;;;16.00;72.10;;;;;;4881339;29;20049;-82
2023/01/01 12:34:24;;;;;;;16.00;3.25;;;16.00;71.80;;;;;;4863135;29;20037;-82
2023/01/01 12:37:21;;;;;;;16.70;3.17;;;16.00;71.70;;;;;;4865615;29;20033;-80
2023/01/01 12:40:03;;;;;;;17.65;3.58;;;16.00;71.60;;;;;;4881578;29;20372;-81
2023/01/01 12:42:42;;;;;;;15.68;3.08;;;16.00;71.70;;;;;;4865185;29;20460;-80
2023/01/01 12:45:36;;;;;;;15.70;4.05;;;16.00;71.70;;;;;;4865082;29;20076;-80
2023/01/01 12:48:08;;;;;;;15.27;3.03;;;16.00;71.70;;;;;;4847767;29;20057;-81
2023/01/01 12:50:45;;;;;;;23.08;3.58;;;15.90;71.80;;;;;;4871092;29;20041;-80
2023/01/01 12:53:36;;;;;;;13.57;2.72;;;16.00;71.90;;;;;;4878936;29;20045;-78
2023/01/01 12:56:33;;;;;;;14.13;3.47;;;15.90;71.90;;;;;;4880838;29;20111;-79
2023/01/01 12:59:04;;;;;;;14.82;2.97;;;15.90;71.90;;;;;;4878788;29;20048;-79
2023/01/01 13:01:32;;;;;;;17.05;3.85;;;15.90;72.00;;;;;;4878933;29;20459;-77
2023/01/01 13:04:04;;;;;;;18.00;2.72;;;15.90;72.00;;;;;;4880939;29;20512;-82
2023/01/01 13:06:39;;;;;;;17.15;4.13;;;15.90;71.90;;;;;;4881563;29;20045;-81
2023/01/01 13:09:21;;;;;;;16.83;3.97;;;15.90;71.80;;;;;;4882085;29;20049;-78
2023/01/01 13:11:53;;;;;;;21.25;5.00;;;15.90;70.60;;;;;;4881756;29;20045;-76
2023/01/01 13:14:19;;;;;;;14.40;3.25;;;15.90;70.00;;;;;;4881445;29;20053;-80
2023/01/01 13:16:56;;;;;;;12.23;2.63;;;15.80;69.60;;;;;;4881088;29;20376;-79
2023/01/01 13:19:39;;;;;;;13.32;3.47;;;15.90;69.60;;;;;;4876564;29;20053;-80
2023/01/01 13:22:26;;;;;;;13.00;3.17;;;15.80;69.70;;;;;;4861818;29;20061;-79
2023/01/01 13:25:23;;;;;;;18.42;4.15;;;15.80;69.80;;;;;;4871332;29;20101;-79
2023/01/01 13:28:02;;;;;;;13.23;3.28;;;15.80;69.90;;;;;;4865603;29;20087;-77
2023/01/01 13:30:34;;;;;;;9.57;2.75;;;15.80;70.00;;;;;;4879431;29;20103;-76
2023/01/01 13:33:32;;;;;;;11.70;2.88;;;15.70;70.00;;;;;;4880866;29;20045;-77
2023/01/01 13:36:07;;;;;;;9.80;2.88;;;15.70;70.00;;;;;;4849700;29;20057;-76
2023/01/01 13:38:51;;;;;;;12.35;3.15;;;15.80;70.30;;;;;;4880853;29;20052;-76
2023/01/01 13:41:26;;;;;;;12.05;3.38;;;15.70;70.30;;;;;;4880989;29;20053;-78
2023/01/01 13:44:09;;;;;;;17.27;3.33;;;15.70;70.40;;;;;;4881364;29;20064;-76
2023/01/01 13:46:46;;;;;;;14.50;2.42;;;15.70;70.60;;;;;;4880923;29;20076;-76
2023/01/01 13:49:44;;;;;;;9.02;2.90;;;15.70;70.70;;;;;;4876249;29;20053;-76
2023/01/01 13:52:24;;;;;;;12.25;2.83;;;15.70;70.80;;;;;;4876216;29;20120;-78
2023/01/01 13:55:14;;;;;;;12.13;2.78;;;15.70;70.80;;;;;;4881315;29;20346;-76
2023/01/01 13:58:12;;;;;;;11.25;3.28;;;15.70;70.40;;;;;;4881123;29;20053;-81
2023/01/01 14:00:56;;;;;;;15.93;3.78;;;15.70;69.80;;;;;;4824974;29;20065;-81
2023/01/01 14:03:27;;;;;;;17.02;3.80;;;15.70;68.00;;;;;;4881098;29;20045;-79
2023/01/01 14:05:58;;;;;;;19.83;4.18;;;15.60;66.90;;;;;;4864427;29;20049;-79
2023/01/01 14:08:30;;;;;;;16.90;3.17;;;15.50;67.40;;;;;;4880961;29;20049;-79
2023/01/01 14:10:56;;;;;;;11.45;3.70;;;15.40;68.50;;;;;;4880110;29;20049;-82
2023/01/01 14:13:26;;;;;;;12.65;2.72;;;15.30;69.00;;;;;;4881008;29;20049;-81
2023/01/01 14:15:57;;;;;;;11.85;2.80;;;15.40;69.10;;;;;;4864076;29;20368;-75
2023/01/01 14:18:49;;;;;;;15.77;2.80;;;15.50;69.30;;;;;;4881441;29;20057;-80
2023/01/01 14:21:33;;;;;;;10.77;3.22;;;15.70;69.40;;;;;;4862472;29;20057;-80
2023/01/01 14:24:05;;;;;;;13.82;2.70;;;15.80;69.70;;;;;;4862678;29;20113;-79
2023/01/01 14:26:35;;;;;;;26.23;4.13;;;16.00;70.10;;;;;;4845144;29;20125;-77
2023/01/01 14:29:14;;;;;;;15.73;3.80;;;16.10;70.00;;;;;;4862461;29;20121;-81
2023/01/01 14:31:44;;;;;;;19.00;3.45;;;16.20;70.80;;;;;;4865748;29;20458;-79
2023/01/01 14:34:22;;;;;;;15.75;4.18;;;16.30;70.80;;;;;;4849837;29;20077;-79
2023/01/01 14:36:53;;;;;;;19.67;3.25;;;16.40;70.80;;;;;;4834205;29;20088;-79
2023/01/01 14:39:32;;;;;;;18.92;2.83;;;16.50;70.90;;;;;;4850034;29;20463;-80
2023/01/01 14:42:18;;;;;;;15.70;3.55;;;16.60;71.10;;;;;;4865549;29;20051;-81
2023/01/01 14:44:49;;;;;;;16.02;3.80;;;16.70;71.20;;;;;;4834746;29;20049;-78
2023/01/01 14:47:25;;;;;;;12.25;3.50;;;16.80;71.20;;;;;;4865831;29;20042;-79
2023/01/01 14:49:52;;;;;;;15.35;3.78;;;16.90;71.40;;;;;;4865739;29;20108;-80
2023/01/01 14:52:26;;;;;;;16.33;5.18;;;16.90;71.70;;;;;;4865073;29;20046;-78
2023/01/01 14:54:53;;;;;;;;;;;16.90;72.60;;;;;;4866126;29;20113;-80
2023/01/01 14:57:24;;;;;;;19.73;5.10;;;16.90;72.60;;;;;;4833967;29;19927;-80
2023/01/01 14:59:54;;;;;;;22.70;3.72;;;16.90;73.30;;;;;;4865847;29;20112;-83
2023/01/01 15:02:23;;;;;;;22.27;6.82;;;16.90;73.30;;;;;;4849378;29;20038;-80
2023/01/01 15:04:49;;;;;;;25.55;7.32;;;16.90;74.70;;;;;;4865452;29;20099;-83
2023/01/01 15:07:32;;;;;;;16.15;5.25;;;16.90;76.80;;;;;;4849144;29;20080;-81
2023/01/01 15:10:03;;;;;;;20.52;4.82;;;16.80;77.00;;;;;;4867181;29;20041;-79
2023/01/01 15:12:41;;;;;;;20.98;4.85;;;16.80;76.80;;;;;;4867375;29;20053;-81
2023/01/01 15:18:57;;;;;;;21.02;4.50;;;16.80;74.30;;;;;;4883319;29;20075;-79
2023/01/01 15:21:40;;;;;;;19.50;5.22;;;16.70;74.90;;;;;;4868054;29;20504;-79
2023/01/01 15:24:16;;;;;;;10.98;4.07;;;16.70;75.70;;;;;;4851078;29;20544;-80
2023/01/01 15:26:50;;;;;;;16.05;5.45;;;16.70;76.10;;;;;;4883717;29;20080;-80
2023/01/01 15:29:26;;;;;;;20.05;4.40;;;16.70;76.20;;;;;;4851593;29;20181;-81
2023/01/01 15:32:22;;;;;;;18.92;4.05;;;16.60;76.80;;;;;;4867164;29;20445;-82
2023/01/01 15:34:57;;;;;;;14.77;3.80;;;16.60;77.50;;;;;;4878663;29;20072;-81
2023/01/01 15:37:32;;;;;;;16.00;3.65;;;16.60;77.10;;;;;;4852068;29;20127;-85
2023/01/01 15:40:01;;;;;;;23.08;4.25;;;16.60;76.90;;;;;;4879636;29;20053;-80
2023/01/01 15:42:36;;;;;;;16.88;4.00;;;16.60;77.00;;;;;;4848120;29;20049;-81
2023/01/01 15:45:21;;;;;;;16.85;3.70;;;16.60;77.00;;;;;;4848348;29;20373;-81
2023/01/01 15:48:18;;;;;;;17.13;3.58;;;16.60;77.10;;;;;;4833158;29;20046;-81
2023/01/01 15:50:50;;;;;;;14.80;3.30;;;16.50;77.10;;;;;;4848386;29;20057;-73
2023/01/01 15:53:28;;;;;;;18.55;3.88;;;16.50;77.10;;;;;;4863912;29;20476;-83
2023/01/01 15:56:00;;;;;;;17.02;3.60;;;16.50;76.90;;;;;;4876776;29;20051;-80
2023/01/01 15:58:41;;;;;;;15.35;5.07;;;16.50;76.80;;;;;;4865601;29;20423;-78
2023/01/01 16:01:12;;;;;;;22.65;5.35;;;16.50;76.50;;;;;;4889886;29;20056;-78
2023/01/01 16:03:39;;;;;;;18.83;4.22;;;16.40;76.10;;;;;;4902013;29;20392;-76
2023/01/01 16:06:06;;;;;;;23.60;4.70;;;16.40;76.00;;;;;;4901781;29;20131;-77
2023/01/01 16:08:33;;;;;;;20.10;4.82;;;16.40;76.00;;;;;;4901912;29;20045;-75
2023/01/01 16:10:58;;;;;;;19.08;4.43;;;16.40;76.00;;;;;;4902017;29;20056;-76
2023/01/01 16:13:24;;;;;;;23.05;5.75;;;16.40;76.00;;;;;;4897346;29;20107;-77
2023/01/01 16:15:59;;;;;;;21.35;4.13;;;16.40;76.10;;;;;;4894857;29;20057;-80
2023/01/01 16:18:36;;;;;;;18.10;3.72;;;16.40;76.20;;;;;;4882570;29;20136;-79
2023/01/01 16:21:04;;;;;;;29.33;5.10;;;16.30;76.20;;;;;;4882791;29;20128;-78
2023/01/01 16:23:30;;;;;;;29.02;4.13;;;16.30;76.20;;;;;;4866681;29;20477;-78
2023/01/01 16:25:56;;;;;;;22.92;4.88;;;16.30;76.10;;;;;;4883055;29;20049;-80
2023/01/01 16:28:22;;;;;;;20.45;4.53;;;16.40;76.70;;;;;;4882701;29;20135;-78
2023/01/01 16:30:48;;;;;;;21.45;4.10;;;16.40;76.20;;;;;;4882324;29;20540;-78
2023/01/01 16:33:16;;;;;;;23.42;4.35;;;16.40;76.00;;;;;;4881303;29;20128;-74
2023/01/01 16:35:42;;;;;;;19.63;4.00;;;16.40;75.30;;;;;;4882687;29;20516;-74
2023/01/01 16:38:08;;;;;;;18.75;5.00;;;16.30;74.50;;;;;;4866307;29;20061;-73
2023/01/01 16:40:34;;;;;;;22.70;5.55;;;16.30;73.40;;;;;;4882820;29;20057;-79
2023/01/01 16:43:00;;;;;;;22.63;5.70;;;16.30;71.90;;;;;;4882562;29;20334;-79
2023/01/01 16:45:26;;;;;;;23.55;5.75;;;16.20;71.20;;;;;;4882745;29;20089;-79
2023/01/01 16:47:53;;;;;;;16.77;4.95;;;16.20;71.30;;;;;;4882932;29;20400;-73
2023/01/01 16:50:19;;;;;;;22.83;5.18;;;16.20;71.70;;;;;;4882513;29;20056;-72
2023/01/01 16:52:45;;;;;;;20.67;5.03;;;16.20;71.70;;;;;;4865433;29;20140;-75
2023/01/01 16:55:12;;;;;;;14.48;4.40;;;16.10;72.30;;;;;;4882809;29;20427;-74
2023/01/01 16:57:38;;;;;;;11.57;3.88;;;16.00;71.80;;;;;;4882131;29;20108;-75
2023/01/01 17:00:05;;;;;;;13.27;3.70;;;15.90;72.00;;;;;;4882387;29;20088;-74
2023/01/01 17:02:31;;;;;;;17.75;3.72;;;15.80;72.30;;;;;;4880199;29;20109;-75
2023/01/01 17:04:57;;;;;;;15.60;4.50;;;15.80;72.50;;;;;;4882274;29;20061;-75
2023/01/01 17:07:23;;;;;;;15.30;3.90;;;15.70;72.70;;;;;;4882089;29;20049;-74
2023/01/01 17:09:48;;;;;;;16.35;3.75;;;15.70;72.80;;;;;;4881884;29;20044;-74
2023/01/01 17:12:14;;;;;;;16.65;4.15;;;15.70;73.00;;;;;;4881655;29;20574;-75
2023/01/01 17:14:40;;;;;;;15.30;3.63;;;15.70;73.10;;;;;;4882086;29;20049;-75
2023/01/01 17:17:06;;;;;;;12.45;4.07;;;15.70;73.30;;;;;;4881858;29;20057;-75
2023/01/01 17:19:31;;;;;;;14.63;4.82;;;15.60;73.50;;;;;;4881748;29;20088;-76
2023/01/01 17:21:57;;;;;;;13.05;3.50;;;15.50;73.70;;;;;;4882458;29;20065;-75
2023/01/01 17:24:23;;;;;;;15.13;3.60;;;15.50;73.90;;;;;;4865438;29;20049;-75
2023/01/01 17:26:51;;;;;;;18.80;3.70;;;15.50;74.00;;;;;;4881960;29;20056;-75
2023/01/01 17:29:18;;;;;;;13.35;3.45;;;15.50;74.10;;;;;;4865339;29;20059;-75
2023/01/01 17:31:43;;;;;;;15.05;4.30;;;15.50;74.30;;;;;;4881475;29;20145;-75
2023/01/01 17:34:12;;;;;;;11.88;4.15;;;15.50;74.40;;;;;;4865280;29;20132;-75
2023/01/01 17:36:39;;;;;;;9.40;3.13;;;15.50;74.10;;;;;;4862953;29;20091;-76
2023/01/01 17:39:05;;;;;;;12.98;3.90;;;15.60;73.80;;;;;;4863141;29;20161;-75
2023/01/01 17:41:32;;;;;;;8.98;3.20;;;15.50;73.70;;;;;;4863306;29;20045;-75
2023/01/01 17:43:58;;;;;;;8.55;2.97;;;15.50;73.70;;;;;;4862778;29;20414;-75
2023/01/01 17:46:27;;;;;;;13.95;3.10;;;15.50;73.80;;;;;;4863022;29;20129;-75
2023/01/01 17:48:53;;;;;;;8.45;3.28;;;15.50;73.90;;;;;;4863258;29;20125;-76
2023/01/01 17:51:19;;;;;;;10.57;3.33;;;15.50;74.00;;;;;;4862973;29;20540;-74
2023/01/01 17:53:46;;;;;;;12.10;3.33;;;15.50;74.10;;;;;;4863152;29;20060;-75
2023/01/01 17:56:14;;;;;;;13.10;3.72;;;15.50;74.20;;;;;;4857600;29;20049;-73
